Time;durP1;ratioP1;P1;durP2;ratioP2;P2;SDS_P1;SDS_P2;PMS_P1;PMS_P2;Temp;Humidity;BMP_temperature;BMP_pressure;BME280_temperature;BME280_humidity;BME280_pressure;Samples;Min_cycle;Max_cycle;Signal;HPM_P1;HPM_P2
2023/12/07 00:01:27;;;;;;;;;;;;;;;23.10;30.29;101884.59;5011869;28;19920;-45
2023/12/07 00:03:53;;;;;;;;;;;;;;;23.10;30.20;101891.88;5047542;28;19925;-44
2023/12/07 00:06:18;;;;;;;;;;;;;;;23.07;30.13;101893.09;5023057;28;19947;-45
2023/12/07 00:08:43;;;;;;;;;;;;;;;23.03;30.26;101889.03;5008293;28;19924;-49
2023/12/07 00:11:08;;;;;;;;;;;;;;;23.02;30.15;101886.47;5018034;28;19918;-46
2023/12/07 00:13:33;;;;;;;;;;;;;;;22.99;30.33;101884.97;5044994;28;20375;-46
2023/12/07 00:15:58;;;;;;;;;;;;;;;22.99;30.34;101884.13;5033730;28;19914;-46
2023/12/07 00:18:24;;;;;;;;;;;;;;;22.94;30.57;101890.06;5038200;28;19920;-47
2023/12/07 00:20:49;;;;;;;;;;;;;;;22.92;30.30;101886.69;5068305;28;20012;-48
2023/12/07 00:23:14;;;;;;;;;;;;;;;22.89;30.42;101886.97;5010514;28;20251;-44
2023/12/07 00:25:39;;;;;;;;;;;;;;;22.84;30.55;101887.50;5015553;28;19913;-46
2023/12/07 00:28:05;;;;;;;;;;;;;;;22.84;30.67;101892.06;5047207;28;19995;-45
2023/12/07 00:30:30;;;;;;;;;;;;;;;22.82;30.50;101891.41;5057173;28;19921;-44
2023/12/07 00:32:55;;;;;;;;;;;;;;;22.79;30.78;101897.16;5045574;28;19912;-49
2023/12/07 00:35:22;;;;;;;;;;;;;;;22.76;30.55;101886.66;5034352;28;19936;-45
2023/12/07 00:37:47;;;;;;;;;;;;;;;22.73;30.62;101887.84;5023719;28;19918;-46
2023/12/07 00:40:12;;;;;;;;;;;;;;;22.71;30.66;101879.88;5016622;28;19939;-47
2023/12/07 00:42:37;;;;;;;;;;;;;;;22.67;30.86;101883.94;5041477;28;19969;-44
2023/12/07 00:45:03;;;;;;;;;;;;;;;22.66;30.88;101884.13;5020156;28;20303;-49
2023/12/07 00:47:28;;;;;;;;;;;;;;;22.65;30.59;101891.41;5020156;28;19967;-44
2023/12/07 00:49:53;;;;;;;;;;;;;;;22.60;30.63;101901.03;5045817;28;19977;-45
2023/12/07 00:52:18;;;;;;;;;;;;;;;22.56;30.92;101897.00;5028617;28;20284;-45
2023/12/07 00:54:44;;;;;;;;;;;;;;;22.52;30.72;101888.38;5014813;28;19918;-49
2023/12/07 00:57:09;;;;;;;;;;;;;;;22.47;30.70;101898.84;5018052;28;19945;-44
2023/12/07 00:59:34;;;;;;;;;;;;;;;22.46;30.98;101903.41;5025707;28;19913;-45
2023/12/07 01:02:01;;;;;;;;;;;;;;;22.43;30.76;101898.34;5011734;28;19914;-44
2023/12/07 01:04:26;;;;;;;;;;;;;;;22.41;31.00;101897.66;5026244;28;19920;-46
2023/12/07 01:06:52;;;;;;;;;;;;;;;22.38;31.22;101898.00;5028440;28;19981;-45
2023/12/07 01:09:17;;;;;;;;;;;;;;;22.37;30.95;101903.59;5012409;28;19935;-44
2023/12/07 01:11:42;;;;;;;;;;;;;;;22.35;31.11;101894.78;5023967;28;20060;-47
2023/12/07 01:14:07;;;;;;;;;;;;;;;22.34;30.91;101903.91;5029897;28;19918;-49
2023/12/07 01:16:33;;;;;;;;;;;;;;;22.29;31.02;101907.13;5016255;28;19918;-43
2023/12/07 01:18:58;;;;;;;;;;;;;;;22.24;31.30;101901.38;5025097;28;19938;-46
2023/12/07 01:21:23;;;;;;;;;;;;;;;22.22;31.15;101908.81;5042952;28;19924;-46
2023/12/07 01:23:48;;;;;;;;;;;;;;;22.19;31.08;101898.31;5020176;28;19914;-45
2023/12/07 01:26:14;;;;;;;;;;;;;;;22.16;31.23;101902.19;5014587;28;20288;-45
2023/12/07 01:28:39;;;;;;;;;;;;;;;22.11;31.35;101896.41;5031506;28;19912;-45
2023/12/07 01:31:04;;;;;;;;;;;;;;;22.05;31.40;101905.19;5026689;28;19914;-45
2023/12/07 01:33:29;;;;;;;;;;;;;;;22.03;31.20;101906.38;5024647;28;19913;-44
2023/12/07 01:35:54;;;;;;;;;;;;;;;21.99;31.19;101902.28;5033909;28;19971;-43
2023/12/07 01:38:19;;;;;;;;;;;;;;;21.94;31.55;101909.03;5024074;28;19916;-44
2023/12/07 01:40:45;;;;;;;;;;;;;;;21.89;31.39;101906.00;5011455;28;20008;-46
2023/12/07 01:43:10;;;;;;;;;;;;;;;21.83;31.52;101908.50;5031650;28;19921;-44
2023/12/07 01:45:35;;;;;;;;;;;;;;;21.78;31.78;101902.72;5031594;28;19912;-45
2023/12/07 01:48:00;;;;;;;;;;;;;;;21.74;31.61;101909.47;5020428;28;19917;-47
2023/12/07 01:50:25;;;;;;;;;;;;;;;21.68;31.90;101913.69;5068589;28;19914;-46
2023/12/07 01:52:52;;;;;;;;;;;;;;;21.61;31.86;101908.06;5049961;28;19961;-44
2023/12/07 01:55:18;;;;;;;;;;;;;;;21.58;31.85;101916.53;5022623;28;19921;-44
2023/12/07 01:57:43;;;;;;;;;;;;;;;21.54;31.94;101912.47;5070847;28;19924;-46
2023/12/07 02:00:09;;;;;;;;;;;;;;;21.52;32.18;101911.75;5062596;28;19953;-43
2023/12/07 02:02:34;;;;;;;;;;;;;;;21.49;32.11;101912.06;5067523;28;20007;-46
2023/12/07 02:04:59;;;;;;;;;;;;;;;21.45;32.04;101916.97;5014718;28;19960;-45
2023/12/07 02:07:24;;;;;;;;;;;;;;;21.43;32.06;101918.13;5062133;28;20004;-43
2023/12/07 02:09:50;;;;;;;;;;;;;;;21.40;32.06;101913.03;5069339;28;19956;-42
2023/12/07 02:12:15;;;;;;;;;;;;;;;21.38;32.08;101912.38;5018944;28;19912;-44
2023/12/07 02:14:40;;;;;;;;;;;;;;;21.35;32.37;101908.09;5040146;28;19916;-44
2023/12/07 02:17:17;;;;;;;;;;;;;;;21.31;32.42;101905.84;5070802;28;19918;-47
2023/12/07 02:19:51;;;;;;;;;;;;;;;21.29;32.43;101910.59;5065741;28;19914;-45
2023/12/07 02:22:27;;;;;;;;;;;;;;;21.26;32.53;101916.31;5069516;28;19924;-44
2023/12/07 02:25:03;;;;;;;;;;;;;;;21.22;32.56;101911.22;5025389;28;19973;-42
2023/12/07 02:27:35;;;;;;;;;;;;;;;21.21;32.48;101917.63;5013200;28;20369;-43
2023/12/07 02:30:00;;;;;;;;;;;;;;;21.20;32.28;101913.25;5040434;28;19914;-43
2023/12/07 02:32:26;;;;;;;;;;;;;;;21.19;32.49;101914.22;5023665;28;20004;-44
2023/12/07 02:34:51;;;;;;;;;;;;;;;21.17;32.22;101907.31;5070683;28;19921;-44
2023/12/07 02:37:16;;;;;;;;;;;;;;;21.15;32.27;101907.47;5020752;28;20430;-44
2023/12/07 02:39:41;;;;;;;;;;;;;;;21.13;32.52;101917.59;5072982;28;19914;-45
2023/12/07 02:42:07;;;;;;;;;;;;;;;21.12;32.49;101907.78;5069854;28;19939;-43
2023/12/07 02:44:32;;;;;;;;;;;;;;;21.10;32.63;101908.94;5069021;28;20025;-43
2023/12/07 02:46:58;;;;;;;;;;;;;;;21.09;32.46;101916.22;5062968;28;20415;-43
2023/12/07 02:49:23;;;;;;;;;;;;;;;21.05;32.39;101904.00;5007957;28;19933;-43
2023/12/07 02:51:48;;;;;;;;;;;;;;;21.06;32.43;101902.16;5020958;28;20399;-42
2023/12/07 02:54:13;;;;;;;;;;;;;;;21.03;32.49;101903.34;5032217;28;19932;-43
2023/12/07 02:56:39;;;;;;;;;;;;;;;21.03;32.52;101910.59;5012639;28;19928;-44
2023/12/07 02:59:04;;;;;;;;;;;;;;;21.02;32.25;101903.47;5025396;28;19914;-45
2023/12/07 03:01:29;;;;;;;;;;;;;;;20.98;32.46;101900.22;5039663;28;19913;-46
2023/12/07 03:03:54;;;;;;;;;;;;;;;20.97;32.61;101904.78;5024652;28;19914;-48
2023/12/07 03:06:19;;;;;;;;;;;;;;;20.96;32.78;101896.84;5005879;28;20488;-45
2023/12/07 03:08:44;;;;;;;;;;;;;;;20.96;32.52;101897.69;5035742;28;19914;-48
2023/12/07 03:11:10;;;;;;;;;;;;;;;20.94;32.87;101901.56;5032473;28;19937;-47
2023/12/07 03:13:35;;;;;;;;;;;;;;;20.95;32.61;101895.16;5016281;28;19917;-45
2023/12/07 03:16:00;;;;;;;;;;;;;;;20.92;32.65;101893.63;5022008;28;19979;-45
2023/12/07 03:18:25;;;;;;;;;;;;;;;20.92;32.37;101898.16;5045119;28;19920;-46
2023/12/07 03:20:50;;;;;;;;;;;;;;;20.91;32.47;101901.88;5004805;28;20013;-48
2023/12/07 03:23:15;;;;;;;;;;;;;;;20.89;32.71;101899.31;5036885;28;19919;-47
2023/12/07 03:25:41;;;;;;;;;;;;;;;20.89;32.64;101899.31;5035762;28;19920;-48
2023/12/07 03:28:06;;;;;;;;;;;;;;;20.89;32.56;101906.59;5065979;28;19918;-49
2023/12/07 03:30:31;;;;;;;;;;;;;;;20.89;32.37;101907.44;5015037;28;19914;-48
2023/12/07 03:32:56;;;;;;;;;;;;;;;20.89;32.63;101907.44;5041302;28;19998;-46
2023/12/07 03:35:21;;;;;;;;;;;;;;;20.88;32.59;101907.59;5004530;28;19921;-48
2023/12/07 03:37:46;;;;;;;;;;;;;;;20.86;32.50;101910.47;5056402;28;19923;-48
2023/12/07 03:40:12;;;;;;;;;;;;;;;20.86;32.69;101910.47;5043037;28;19920;-45
2023/12/07 03:42:37;;;;;;;;;;;;;;;20.87;32.57;101911.31;5017020;28;19914;-45
2023/12/07 03:45:03;;;;;;;;;;;;;;;20.85;32.64;101919.56;5017455;28;20008;-44
2023/12/07 03:47:28;;;;;;;;;;;;;;;20.85;32.58;101927.69;5030383;28;19918;-48
2023/12/07 03:49:53;;;;;;;;;;;;;;;20.86;32.27;101921.28;5042059;28;19916;-47
2023/12/07 03:52:18;;;;;;;;;;;;;;;20.85;32.27;101921.44;5043742;28;19918;-47
2023/12/07 03:54:43;;;;;;;;;;;;;;;20.86;32.31;101925.84;5051148;28;19939;-48
2023/12/07 03:57:09;;;;;;;;;;;;;;;20.87;32.34;101928.38;5027336;28;19985;-48
2023/12/07 03:59:36;;;;;;;;;;;;;;;20.86;32.56;101925.84;5013194;28;19914;-52
2023/12/07 04:02:01;;;;;;;;;;;;;;;20.85;32.21;101926.84;5023489;28;19960;-48
2023/12/07 04:04:26;;;;;;;;;;;;;;;20.83;32.35;101927.00;5029377;28;19914;-45
2023/12/07 04:06:51;;;;;;;;;;;;;;;20.84;32.31;101935.94;5036043;28;20008;-49
2023/12/07 04:09:17;;;;;;;;;;;;;;;20.85;32.32;101932.25;5031240;28;20286;-47
2023/12/07 04:11:42;;;;;;;;;;;;;;;20.84;32.26;101936.81;5033931;28;20009;-47
2023/12/07 04:14:07;;;;;;;;;;;;;;;20.85;32.25;101935.78;5019150;28;19922;-43
2023/12/07 04:16:32;;;;;;;;;;;;;;;20.82;32.28;101927.16;5019778;28;19926;-48
2023/12/07 04:18:58;;;;;;;;;;;;;;;20.82;32.55;101929.88;5011557;28;19912;-46
2023/12/07 04:21:23;;;;;;;;;;;;;;;20.84;32.21;101930.53;5017887;28;20546;-47
2023/12/07 04:23:48;;;;;;;;;;;;;;;20.81;32.23;101934.41;5013612;28;19918;-46
2023/12/07 04:26:14;;;;;;;;;;;;;;;20.83;32.25;101926.16;5042430;28;19917;-43
2023/12/07 04:28:39;;;;;;;;;;;;;;;20.83;32.23;101929.69;5022478;28;19917;-48
2023/12/07 04:31:05;;;;;;;;;;;;;;;20.82;32.22;101922.59;5013763;28;19996;-48
2023/12/07 04:33:30;;;;;;;;;;;;;;;20.82;32.17;101936.13;5013550;28;19912;-46
2023/12/07 04:35:55;;;;;;;;;;;;;;;20.82;32.28;101936.13;5020557;28;20415;-47
2023/12/07 04:38:20;;;;;;;;;;;;;;;20.83;32.10;101936.97;5030680;28;19914;-45
2023/12/07 04:40:45;;;;;;;;;;;;;;;20.82;32.35;101930.72;5032068;28;19918;-45
2023/12/07 04:43:11;;;;;;;;;;;;;;;20.84;32.08;101927.84;5027473;28;19920;-49
2023/12/07 04:45:36;;;;;;;;;;;;;;;20.85;32.22;101926.84;5007733;28;19936;-46
2023/12/07 04:48:02;;;;;;;;;;;;;;;20.85;32.02;101919.56;5019681;28;19919;-46
2023/12/07 04:50:27;;;;;;;;;;;;;;;20.86;31.94;101918.59;5035016;28;19923;-47
2023/12/07 04:52:54;;;;;;;;;;;;;;;20.87;32.46;101920.28;5069389;28;20008;-48
2023/12/07 04:55:19;;;;;;;;;;;;;;;20.88;32.12;101923.81;5018250;28;20036;-45
2023/12/07 04:57:44;;;;;;;;;;;;;;;20.88;31.90;101927.38;5078117;28;20386;-46
2023/12/07 05:00:11;;;;;;;;;;;;;;;20.91;32.04;101927.06;5024680;28;20013;-48
2023/12/07 05:02:37;;;;;;;;;;;;;;;20.92;31.80;101927.91;5029466;28;19919;-46
2023/12/07 05:05:02;;;;;;;;;;;;;;;20.92;31.89;101923.34;5030071;28;19925;-46
2023/12/07 05:07:27;;;;;;;;;;;;;;;20.92;31.92;101928.75;5021242;28;19914;-47
2023/12/07 05:09:53;;;;;;;;;;;;;;;20.94;31.94;101936.69;5022422;28;19914;-44
2023/12/07 05:12:18;;;;;;;;;;;;;;;20.95;32.10;101936.56;5031340;28;19963;-46
2023/12/07 05:14:43;;;;;;;;;;;;;;;20.98;31.79;101938.09;5042683;28;19921;-45
2023/12/07 05:17:08;;;;;;;;;;;;;;;20.99;31.98;101922.75;5076858;28;20374;-43
2023/12/07 05:19:34;;;;;;;;;;;;;;;20.90;31.93;101900.19;5045222;28;19931;-46
2023/12/07 05:21:59;;;;;;;;;;;;;;;21.00;31.76;101919.88;5021954;28;19983;-47
2023/12/07 05:24:24;;;;;;;;;;;;;;;21.02;31.66;101907.03;5008471;28;19914;-45
2023/12/07 05:26:50;;;;;;;;;;;;;;;21.02;31.81;101917.00;5021432;28;19977;-48
2023/12/07 05:29:15;;;;;;;;;;;;;;;21.00;31.72;101913.63;5052867;28;19921;-48
2023/12/07 05:31:40;;;;;;;;;;;;;;;20.97;31.67;101914.75;5036331;28;19917;-48
2023/12/07 05:34:06;;;;;;;;;;;;;;;20.97;31.79;101915.59;5049384;28;19923;-46
2023/12/07 05:36:31;;;;;;;;;;;;;;;20.99;32.02;101923.59;5027747;28;19974;-48
2023/12/07 05:38:56;;;;;;;;;;;;;;;21.01;32.10;101926.13;5012324;28;20008;-43
2023/12/07 05:41:22;;;;;;;;;;;;;;;21.02;31.98;101927.81;5019420;28;19953;-44
2023/12/07 05:43:47;;;;;;;;;;;;;;;21.02;31.83;101928.66;5031734;28;19914;-43
2023/12/07 05:46:12;;;;;;;;;;;;;;;21.04;31.88;101926.66;5033065;28;19925;-47
2023/12/07 05:48:37;;;;;;;;;;;;;;;21.04;31.76;101918.53;5019899;28;19918;-49
2023/12/07 05:51:03;;;;;;;;;;;;;;;21.06;32.11;101923.78;5043252;28;19927;-48
2023/12/07 05:53:28;;;;;;;;;;;;;;;21.06;31.92;101919.22;5019572;28;19929;-48
2023/12/07 05:55:56;;;;;;;;;;;;;;;21.07;32.05;101904.72;5014156;28;19941;-45
2023/12/07 05:58:21;;;;;;;;;;;;;;;21.09;32.18;101909.94;5045017;28;19920;-47
2023/12/07 06:00:47;;;;;;;;;;;;;;;21.11;31.96;101918.75;5021921;28;19912;-48
2023/12/07 06:03:13;;;;;;;;;;;;;;;21.10;31.95;101914.34;5086564;28;19914;-51
2023/12/07 06:05:38;;;;;;;;;;;;;;;21.11;32.33;101919.63;5022975;28;19917;-49
2023/12/07 06:08:04;;;;;;;;;;;;;;;21.11;32.31;101916.91;5017927;28;19916;-51
2023/12/07 06:10:29;;;;;;;;;;;;;;;21.12;32.04;101913.19;5005287;28;19922;-49
2023/12/07 06:12:56;;;;;;;;;;;;;;;21.13;32.31;101917.59;5015789;28;19985;-48
2023/12/07 06:15:21;;;;;;;;;;;;;;;21.14;32.24;101916.56;5015756;28;20391;-44
2023/12/07 06:17:47;;;;;;;;;;;;;;;21.17;32.03;101915.41;5001270;28;19918;-46
2023/12/07 06:20:12;;;;;;;;;;;;;;;21.20;32.18;101912.41;5009079;28;19914;-47
2023/12/07 06:22:37;;;;;;;;;;;;;;;21.20;32.34;101910.53;5022476;28;19914;-47
2023/12/07 06:25:02;;;;;;;;;;;;;;;21.22;32.27;101916.63;5009689;28;19914;-46
2023/12/07 06:27:27;;;;;;;;;;;;;;;21.23;31.95;101917.47;5012787;28;19914;-50
2023/12/07 06:29:53;;;;;;;;;;;;;;;21.27;32.24;101913.44;5011919;28;19912;-44
2023/12/07 06:32:18;;;;;;;;;;;;;;;21.26;32.13;101919.88;5012011;28;19935;-47
2023/12/07 06:34:43;;;;;;;;;;;;;;;21.27;32.28;101923.41;5006885;28;19953;-48
2023/12/07 06:37:10;;;;;;;;;;;;;;;21.29;32.15;101922.25;5012745;28;19958;-47
2023/12/07 06:39:35;;;;;;;;;;;;;;;21.31;32.21;101925.63;5065725;28;19920;-42
2023/12/07 06:42:00;;;;;;;;;;;;;;;21.31;31.93;101924.78;5004946;28;19914;-43
2023/12/07 06:44:25;;;;;;;;;;;;;;;21.33;32.20;101929.09;5018023;28;19918;-46
2023/12/07 06:46:51;;;;;;;;;;;;;;;21.34;32.16;101929.94;5014604;28;19923;-44
2023/12/07 06:49:16;;;;;;;;;;;;;;;21.36;32.08;101930.59;5007706;28;20352;-47
2023/12/07 06:51:41;;;;;;;;;;;;;;;21.37;32.22;101929.63;5013100;28;20007;-48
2023/12/07 06:54:06;;;;;;;;;;;;;;;21.39;31.84;101930.28;5015223;28;19922;-44
2023/12/07 06:56:31;;;;;;;;;;;;;;;21.40;32.01;101937.38;5020943;28;19932;-46
2023/12/07 06:58:58;;;;;;;;;;;;;;;21.41;32.07;101937.25;5033537;28;20409;-44
2023/12/07 07:01:24;;;;;;;;;;;;;;;21.43;31.88;101942.50;5033334;28;20366;-46
2023/12/07 07:03:49;;;;;;;;;;;;;;;21.43;31.97;101951.44;5011466;28;19928;-47
2023/12/07 07:06:14;;;;;;;;;;;;;;;21.43;32.07;101950.59;5019700;28;19999;-46
2023/12/07 07:08:39;;;;;;;;;;;;;;;21.45;32.05;101945.88;5027318;28;19920;-49
2023/12/07 07:11:11;;;;;;;;;;;;;;;21.46;31.83;101940.31;5037196;28;19919;-46
2023/12/07 07:13:36;;;;;;;;;;;;;;;21.49;31.91;101939.13;5021894;28;20020;-48
2023/12/07 07:16:01;;;;;;;;;;;;;;;21.51;31.96;101934.41;5032660;28;19916;-45
2023/12/07 07:18:27;;;;;;;;;;;;;;;21.50;31.92;101930.03;5019250;28;20849;-44
2023/12/07 07:20:52;;;;;;;;;;;;;;;21.51;31.88;101934.41;5010366;28;19936;-46
2023/12/07 07:23:18;;;;;;;;;;;;;;;21.51;31.97;101934.41;5022628;28;20392;-45
2023/12/07 07:25:43;;;;;;;;;;;;;;;21.03;31.91;101861.94;5026262;28;19938;-43
2023/12/07 07:28:08;;;;;;;;;;;;;;;21.49;32.03;101943.69;5030764;28;19913;-45
2023/12/07 07:30:33;;;;;;;;;;;;;;;21.46;31.84;101942.19;5060163;28;20001;-44
2023/12/07 07:32:59;;;;;;;;;;;;;;;21.45;31.96;101951.28;5082209;28;19936;-48
2023/12/07 07:35:24;;;;;;;;;;;;;;;21.43;31.90;101948.75;5010289;28;19950;-46
2023/12/07 07:37:49;;;;;;;;;;;;;;;21.41;31.98;101948.06;5019003;28;19913;-43
2023/12/07 07:40:14;;;;;;;;;;;;;;;21.43;32.13;101939.78;5031318;28;19916;-45
2023/12/07 07:42:40;;;;;;;;;;;;;;;21.42;31.86;101946.22;5011094;28;19929;-45
2023/12/07 07:45:06;;;;;;;;;;;;;;;21.42;31.92;101946.22;5033681;28;19918;-45
2023/12/07 07:47:31;;;;;;;;;;;;;;;21.44;32.15;101946.88;5029421;28;20386;-44
2023/12/07 07:49:58;;;;;;;;;;;;;;;21.43;32.00;101951.44;5077510;28;19922;-43
2023/12/07 07:52:23;;;;;;;;;;;;;;;21.44;32.25;101947.72;5018892;28;19921;-43
2023/12/07 07:54:48;;;;;;;;;;;;;;;21.46;31.83;101958.41;5040184;28;19921;-45
2023/12/07 07:57:13;;;;;;;;;;;;;;;21.48;31.80;101966.34;5017376;28;20418;-43
2023/12/07 07:59:39;;;;;;;;;;;;;;;21.49;32.17;101962.63;5020107;28;19935;-45
2023/12/07 08:02:04;;;;;;;;;;;;;;;21.49;31.84;101955.34;5035270;28;19925;-44
2023/12/07 08:04:29;;;;;;;;;;;;;;;21.52;32.01;101954.19;5025849;28;19927;-47
2023/12/07 08:06:54;;;;;;;;;;;;;;;21.54;31.78;101954.91;5008509;28;19985;-44
2023/12/07 08:09:19;;;;;;;;;;;;;;;21.56;31.71;101955.59;5030483;28;19912;-43
2023/12/07 08:11:44;;;;;;;;;;;;;;;21.58;31.66;101962.53;5033166;28;19962;-43
2023/12/07 08:14:10;;;;;;;;;;;;;;;21.58;31.69;101956.25;5022789;28;19914;-45
2023/12/07 08:16:35;;;;;;;;;;;;;;;21.59;31.74;101958.81;5027620;28;20400;-45
2023/12/07 08:19:00;;;;;;;;;;;;;;;21.60;31.87;101963.22;5088614;28;20421;-45
2023/12/07 08:21:25;;;;;;;;;;;;;;;21.62;31.54;101972.03;5020782;28;19978;-47
2023/12/07 08:23:51;;;;;;;;;;;;;;;21.61;31.85;101961.34;5049003;28;19921;-42
2023/12/07 08:26:16;;;;;;;;;;;;;;;21.61;31.75;101956.78;5086348;28;19960;-43
2023/12/07 08:28:41;;;;;;;;;;;;;;;21.62;31.75;101966.63;5071670;28;20438;-44
2023/12/07 08:31:06;;;;;;;;;;;;;;;21.65;31.86;101962.72;5021086;28;19939;-44
2023/12/07 08:33:34;;;;;;;;;;;;;;;21.66;31.68;101959.88;5049492;28;20362;-43
2023/12/07 08:35:59;;;;;;;;;;;;;;;21.69;31.75;101950.56;5046891;28;19925;-45
2023/12/07 08:38:24;;;;;;;;;;;;;;;21.70;31.78;101961.22;5057754;28;19914;-42
2023/12/07 08:40:49;;;;;;;;;;;;;;;21.71;31.77;101956.69;5044516;28;19918;-45
2023/12/07 08:43:14;;;;;;;;;;;;;;;21.75;31.75;101954.47;5015632;28;20384;-43
2023/12/07 08:45:39;;;;;;;;;;;;;;;21.76;31.37;101958.91;5019866;28;19916;-44
2023/12/07 08:48:05;;;;;;;;;;;;;;;21.77;31.46;101960.59;5030783;28;19935;-44
2023/12/07 08:50:30;;;;;;;;;;;;;;;21.77;31.48;101964.16;5057117;28;19955;-42
2023/12/07 08:52:55;;;;;;;;;;;;;;;21.79;31.56;101963.97;5033563;28;19925;-44
2023/12/07 08:55:20;;;;;;;;;;;;;;;21.81;31.56;101967.38;5036203;28;19925;-43
2023/12/07 08:57:45;;;;;;;;;;;;;;;21.83;31.33;101958.06;5024476;28;19912;-45
2023/12/07 09:00:12;;;;;;;;;;;;;;;21.83;31.36;101958.06;5012888;28;19914;-44
2023/12/07 09:02:38;;;;;;;;;;;;;;;21.87;31.26;101961.31;5012307;28;20391;-45
2023/12/07 09:05:03;;;;;;;;;;;;;;;21.92;31.21;101964.41;5032740;28;19914;-43
2023/12/07 09:07:28;;;;;;;;;;;;;;;21.90;31.18;101966.41;5007898;28;19918;-43
2023/12/07 09:09:53;;;;;;;;;;;;;;;21.90;31.25;101961.00;5031379;28;20034;-46
2023/12/07 09:12:18;;;;;;;;;;;;;;;21.89;31.00;101965.56;5023569;28;19959;-45
2023/12/07 09:14:44;;;;;;;;;;;;;;;21.90;30.97;101956.41;5011006;28;20285;-43
2023/12/07 09:17:09;;;;;;;;;;;;;;;21.91;30.94;101952.69;5016376;28;19916;-45
2023/12/07 09:19:34;;;;;;;;;;;;;;;21.94;31.11;101949.66;5040637;28;19923;-43
2023/12/07 09:21:59;;;;;;;;;;;;;;;22.01;30.83;101949.88;5035948;28;20016;-43
2023/12/07 09:24:24;;;;;;;;;;;;;;;22.07;30.97;101943.78;5024154;28;19920;-43
2023/12/07 09:26:49;;;;;;;;;;;;;;;22.13;30.57;101945.88;5040754;28;19963;-44
2023/12/07 09:29:15;;;;;;;;;;;;;;;22.18;30.69;101950.81;5019476;28;19918;-44
2023/12/07 09:31:40;;;;;;;;;;;;;;;22.22;30.67;101946.75;5010964;28;19917;-43
2023/12/07 09:34:05;;;;;;;;;;;;;;;22.27;30.62;101952.50;5020778;28;19913;-42
2023/12/07 09:36:30;;;;;;;;;;;;;;;22.28;30.25;101956.91;5030986;28;19960;-43
2023/12/07 09:38:55;;;;;;;;;;;;;;;22.33;30.12;101946.41;5018358;28;19935;-45
2023/12/07 09:41:21;;;;;;;;;;;;;;;22.36;29.99;101946.09;5017583;28;19918;-44
2023/12/07 09:43:46;;;;;;;;;;;;;;;22.41;30.17;101945.59;5069789;28;19918;-44
2023/12/07 09:46:11;;;;;;;;;;;;;;;22.42;30.21;101941.88;5008939;28;19914;-45
2023/12/07 09:48:37;;;;;;;;;;;;;;;22.45;29.87;101949.66;5024965;28;19913;-47
2023/12/07 09:51:02;;;;;;;;;;;;;;;22.47;29.82;101942.19;5037468;28;20027;-45
2023/12/07 09:53:29;;;;;;;;;;;;;;;22.51;29.99;101931.88;5021628;28;19933;-46
2023/12/07 09:55:54;;;;;;;;;;;;;;;22.53;29.89;101932.56;5017410;28;19927;-46
2023/12/07 09:58:19;;;;;;;;;;;;;;;22.57;29.76;101932.06;5030897;28;20004;-44
2023/12/07 10:00:44;;;;;;;;;;;;;;;22.61;29.67;101932.59;5010080;28;19933;-46
2023/12/07 10:03:09;;;;;;;;;;;;;;;22.60;29.54;101933.56;5072992;28;19921;-44
2023/12/07 10:05:51;;;;;;;;;;;;;;;22.60;29.90;101929.03;5063293;28;19973;-44
2023/12/07 10:08:25;;;;;;;;;;;;;;;22.64;29.91;101934.94;5072267;28;19918;-45
2023/12/07 10:10:53;;;;;;;;;;;;;;;22.65;29.71;101936.66;5019706;28;19925;-43
2023/12/07 10:13:19;;;;;;;;;;;;;;;22.69;29.55;101932.59;5068096;28;19940;-44
2023/12/07 10:15:44;;;;;;;;;;;;;;;22.67;29.63;101932.75;5002497;28;19929;-47
2023/12/07 10:18:09;;;;;;;;;;;;;;;22.68;29.40;101926.31;5022732;28;19979;-43
2023/12/07 10:20:34;;;;;;;;;;;;;;;22.70;29.42;101928.84;5025759;28;19928;-45
2023/12/07 10:23:07;;;;;;;;;;;;;;;22.72;29.82;101937.66;5021509;28;20015;-46
2023/12/07 10:25:32;;;;;;;;;;;;;;;22.71;29.81;101930.53;5009534;28;19945;-46
2023/12/07 10:27:57;;;;;;;;;;;;;;;22.71;29.41;101923.25;5027674;28;19919;-47
2023/12/07 10:30:25;;;;;;;;;;;;;;;22.71;29.94;101909.69;5017972;28;19910;-46
2023/12/07 10:32:50;;;;;;;;;;;;;;;22.70;29.76;101908.00;5020196;28;20445;-47
2023/12/07 10:35:16;;;;;;;;;;;;;;;22.71;29.60;101901.56;5034515;28;19918;-43
2023/12/07 10:37:41;;;;;;;;;;;;;;;22.77;29.37;101908.19;5022980;28;19949;-45
2023/12/07 10:40:07;;;;;;;;;;;;;;;22.77;29.63;101901.91;5006608;28;19968;-46
2023/12/07 10:42:33;;;;;;;;;;;;;;;22.79;29.45;101905.31;5021184;28;19951;-46
2023/12/07 10:44:58;;;;;;;;;;;;;;;22.80;29.67;101899.69;5033441;28;19912;-46
2023/12/07 10:47:24;;;;;;;;;;;;;;;22.79;29.53;101895.31;5071120;28;20358;-44
2023/12/07 10:49:50;;;;;;;;;;;;;;;22.78;29.39;101904.47;5069434;28;19966;-48
2023/12/07 10:52:15;;;;;;;;;;;;;;;22.82;29.42;101889.53;5059049;28;19925;-45
2023/12/07 10:54:42;;;;;;;;;;;;;;;22.81;29.60;101887.84;5009104;28;19918;-45
2023/12/07 10:57:07;;;;;;;;;;;;;;;22.83;29.76;101876.81;5050063;28;19932;-48
2023/12/07 10:59:33;;;;;;;;;;;;;;;22.82;29.43;101883.28;5028368;28;19913;-47
2023/12/07 11:01:58;;;;;;;;;;;;;;;22.82;29.46;101884.13;5062709;28;19918;-44
2023/12/07 11:04:23;;;;;;;;;;;;;;;22.84;29.43;101878.50;5061228;28;19977;-46
2023/12/07 11:06:48;;;;;;;;;;;;;;;22.86;29.63;101871.06;5061053;28;19914;-47
2023/12/07 11:09:15;;;;;;;;;;;;;;;22.87;29.50;101873.59;5060106;28;19918;-47
2023/12/07 11:11:45;;;;;;;;;;;;;;;22.88;29.57;101872.56;5010326;28;19922;-46
2023/12/07 11:14:13;;;;;;;;;;;;;;;22.89;29.84;101859.84;5065303;28;19918;-43
2023/12/07 11:16:43;;;;;;;;;;;;;;;22.84;29.84;101857.66;5067635;28;19918;-43
2023/12/07 11:19:27;;;;;;;;;;;;;;;22.84;29.89;101848.69;5033509;28;20008;-47
2023/12/07 11:21:52;;;;;;;;;;;;;;;22.86;29.73;101841.25;5084763;28;20023;-43
2023/12/07 11:24:17;;;;;;;;;;;;;;;22.84;30.13;101827.84;5081388;28;19918;-47
2023/12/07 11:26:42;;;;;;;;;;;;;;;22.86;29.91;101830.41;5004976;28;19914;-44
2023/12/07 11:29:08;;;;;;;;;;;;;;;22.87;29.96;101835.63;5021965;28;19943;-44
2023/12/07 11:31:33;;;;;;;;;;;;;;;22.89;30.04;101838.16;5066693;28;19918;-46
2023/12/07 11:33:58;;;;;;;;;;;;;;;22.89;30.11;101836.28;5066917;28;19914;-46
2023/12/07 11:36:23;;;;;;;;;;;;;;;22.90;30.16;101832.63;5068939;28;19918;-47
2023/12/07 11:39:11;;;;;;;;;;;;;;;22.90;30.29;101818.22;5032352;28;20304;-45
2023/12/07 11:41:43;;;;;;;;;;;;;;;22.90;30.19;101824.47;5025735;28;19932;-47
2023/12/07 11:44:09;;;;;;;;;;;;;;;22.97;29.99;101826.50;5020841;28;20280;-48
2023/12/07 11:46:35;;;;;;;;;;;;;;;23.00;29.86;101818.84;5073205;28;19920;-46
2023/12/07 11:49:00;;;;;;;;;;;;;;;23.07;30.06;101814.44;5011511;28;19959;-45
2023/12/07 11:51:26;;;;;;;;;;;;;;;23.14;29.99;101814.56;5002842;28;19922;-47
2023/12/07 11:53:51;;;;;;;;;;;;;;;23.22;29.66;101813.69;5019801;28;19927;-42
2023/12/07 11:56:20;;;;;;;;;;;;;;;23.29;29.68;101812.84;5018549;28;19957;-45
2023/12/07 11:58:45;;;;;;;;;;;;;;;23.30;29.78;101811.78;5019951;28;20380;-45
2023/12/07 12:01:10;;;;;;;;;;;;;;;23.33;29.56;101802.47;5065397;28;19981;-46
2023/12/07 12:03:39;;;;;;;;;;;;;;;23.39;29.54;101789.03;5009810;28;19957;-48
2023/12/07 12:06:05;;;;;;;;;;;;;;;23.42;29.56;101788.69;5001750;28;19918;-48
2023/12/07 12:08:31;;;;;;;;;;;;;;;23.39;29.60;101789.03;5006697;28;20381;-47
2023/12/07 12:10:59;;;;;;;;;;;;;;;23.42;29.54;101790.56;5050112;28;19926;-46
2023/12/07 12:13:28;;;;;;;;;;;;;;;23.45;29.72;101785.63;5010517;28;19916;-47
2023/12/07 12:15:53;;;;;;;;;;;;;;;23.47;29.27;101781.88;5025316;28;19978;-47
2023/12/07 12:18:18;;;;;;;;;;;;;;;23.45;29.53;101782.91;5006298;28;19921;-45
2023/12/07 12:20:44;;;;;;;;;;;;;;;23.44;29.76;101780.34;5009724;28;20000;-47
2023/12/07 12:23:09;;;;;;;;;;;;;;;23.43;29.57;101781.38;5015881;28;19921;-47
2023/12/07 12:25:35;;;;;;;;;;;;;;;23.47;29.86;101780.00;5004113;28;19912;-43
2023/12/07 12:28:01;;;;;;;;;;;;;;;23.55;29.72;101763.66;5077904;28;19920;-46